Time;durP1;ratioP1;P1;durP2;ratioP2;P2;SDS_P1;SDS_P2;PMS_P1;PMS_P2;Temp;Humidity;BMP_temperature;BMP_pressure;BME280_temperature;BME280_humidity;BME280_pressure;Samples;Min_cycle;Max_cycle;Signal;HPM_P1;HPM_P2
2022/02/14 00:14:34;;;;;;;24.17;12.10;;;;;;;0.52;74.82;101874.91;30711938;28;20063;-75
2022/02/14 00:29:36;;;;;;;52.17;19.73;;;;;;;0.72;73.33;101863.66;30700971;28;20078;-76
2022/02/14 00:44:38;;;;;;;54.63;15.57;;;;;;;0.86;73.15;101853.66;30712753;28;20074;-75
2022/02/14 00:59:41;;;;;;;70.53;22.50;;;;;;;0.87;71.25;101844.56;30699592;28;20058;-76
2022/02/14 01:14:43;;;;;;;75.43;22.43;;;;;;;0.85;72.79;101836.03;30727156;28;20057;-74
2022/02/14 01:29:45;;;;;;;34.87;15.93;;;;;;;0.45;72.40;101826.47;30720816;28;20091;-76
2022/02/14 01:44:49;;;;;;;46.37;20.17;;;;;;;-0.08;74.01;101820.06;30734601;28;20047;-74
2022/02/14 01:59:51;;;;;;;75.93;29.93;;;;;;;-0.29;74.49;101813.63;30748198;28;20057;-76
2022/02/14 02:15:02;;;;;;;69.37;27.30;;;;;;;-0.41;77.67;101800.03;30791232;28;20108;-75
2022/02/14 02:30:07;;;;;;;69.83;28.50;;;;;;;-0.24;77.64;101797.50;30721866;28;20147;-76
2022/02/14 02:45:11;;;;;;;61.83;26.15;;;;;;;-0.60;80.71;101792.19;30683016;28;20094;-75
2022/02/14 03:00:15;;;;;;;98.13;36.33;;;;;;;-0.48;80.06;101797.00;30685290;28;20069;-74
2022/02/14 03:15:19;;;;;;;61.60;25.50;;;;;;;-0.90;85.12;101804.31;30707625;28;20090;-75
2022/02/14 03:30:23;;;;;;;69.30;27.43;;;;;;;-1.10;87.50;101797.53;30720491;28;20130;-76
2022/02/14 03:45:28;;;;;;;54.97;25.73;;;;;;;-1.14;86.37;101793.88;30736022;28;20047;-74
2022/02/14 04:00:30;;;;;;;69.47;28.93;;;;;;;-1.13;86.72;101786.69;30706453;28;20051;-75
2022/02/14 04:15:32;;;;;;;72.20;30.47;;;;;;;-0.95;84.85;101785.00;30692221;28;20126;-76
2022/02/14 04:30:34;;;;;;;78.90;30.93;;;;;;;-0.89;82.96;101784.56;30736783;28;20059;-75
2022/02/14 04:45:36;;;;;;;70.07;32.30;;;;;;;-1.00;81.99;101783.22;30728674;28;20058;-76
2022/02/14 05:00:38;;;;;;;63.30;26.67;;;;;;;-0.69;81.53;101778.00;30721980;28;20501;-76
2022/02/14 05:15:40;;;;;;;48.60;20.13;;;;;;;-0.68;80.26;101795.56;30704594;28;20098;-76
2022/02/14 05:30:42;;;;;;;48.90;22.40;;;;;;;-0.68;80.17;101798.25;30716910;28;20055;-75
2022/02/14 05:45:44;;;;;;;43.73;18.43;;;;;;;0.50;75.01;101807.59;30714048;28;20057;-75
2022/02/14 06:00:48;;;;;;;37.53;15.13;;;;;;;2.07;68.48;101800.19;30693644;28;20083;-75
2022/02/14 06:15:50;;;;;;;29.53;13.03;;;;;;;3.91;65.00;101811.03;30671567;28;20052;-72
2022/02/14 06:30:52;;;;;;;23.03;10.73;;;;;;;5.42;59.45;101813.50;30700222;28;20040;-75
2022/02/14 06:45:53;;;;;;;25.17;12.40;;;;;;;6.94;57.25;101805.06;30734041;28;20042;-73
2022/02/14 07:00:55;;;;;;;23.53;10.67;;;;;;;7.84;47.55;101799.19;30740081;28;20062;-75
2022/02/14 07:15:58;;;;;;;26.30;10.73;;;;;;;8.38;49.38;101795.50;30715808;28;20047;-76
2022/02/14 07:30:59;;;;;;;17.43;8.97;;;;;;;8.69;47.28;101782.84;30692342;28;20052;-73
2022/02/14 07:46:02;;;;;;;21.13;9.00;;;;;;;9.75;45.08;101777.97;30720581;28;20051;-75
2022/02/14 08:01:04;;;;;;;16.13;6.27;;;;;;;10.70;45.05;101760.97;30739717;28;20063;-76
2022/02/14 08:16:06;;;;;;;13.97;6.90;;;;;;;10.66;43.79;101766.38;30747334;28;20457;-75
2022/02/14 08:31:08;;;;;;;14.63;7.13;;;;;;;11.56;39.49;101757.47;30784313;28;20051;-76
2022/02/14 08:46:10;;;;;;;14.27;6.17;;;;;;;12.34;32.21;101763.00;30705222;28;20072;-75
2022/02/14 09:01:12;;;;;;;16.23;6.13;;;;;;;12.69;35.50;101745.09;30738376;28;20512;-76
2022/02/14 09:16:14;;;;;;;11.00;6.17;;;;;;;12.70;32.08;101739.25;30696765;29;20473;-78
2022/02/14 09:31:16;;;;;;;21.47;6.83;;;;;;;12.93;33.31;101722.44;30747708;28;20055;-75
2022/02/14 09:46:18;;;;;;;14.83;5.07;;;;;;;13.20;29.42;101701.72;30760365;28;20060;-74
2022/02/14 10:01:20;;;;;;;14.90;4.43;;;;;;;13.11;29.60;101674.06;30708825;28;20139;-75
2022/02/14 10:16:24;;;;;;;16.83;5.97;;;;;;;13.62;31.47;101645.31;30670348;28;20051;-76
2022/02/14 10:31:26;;;;;;;14.43;3.73;;;;;;;13.10;27.14;101634.34;30756151;28;20094;-75
2022/02/14 10:46:28;;;;;;;6.13;3.20;;;;;;;13.16;27.03;101608.22;30696635;28;20051;-75
2022/02/14 11:01:30;;;;;;;7.20;2.87;;;;;;;12.77;29.56;101604.91;30709151;28;20056;-76
2022/02/14 11:16:35;;;;;;;6.50;2.63;;;;;;;13.59;28.15;101567.00;30698965;28;20134;-75
2022/02/14 11:31:37;;;;;;;10.50;3.67;;;;;;;14.08;27.50;101571.19;30747952;28;20541;-76
2022/02/14 11:46:42;;;;;;;5.40;3.00;;;;;;;12.96;28.02;101580.69;30732423;28;20059;-76
2022/02/14 12:01:44;;;;;;;5.95;2.95;;;;;;;14.57;27.54;101542.53;30767059;28;20044;-77
2022/02/14 12:32:14;;;;;;;8.77;3.53;;;;;;;16.47;25.11;101521.69;30735616;28;20051;-77
2022/02/14 12:47:18;;;;;;;10.47;4.13;;;;;;;13.19;27.55;101533.81;30757873;28;20101;-77
2022/02/14 13:02:23;;;;;;;7.60;4.73;;;;;;;9.48;31.78;101525.19;30705927;28;20059;-76
2022/02/14 13:17:26;;;;;;;12.00;3.23;;;;;;;7.90;33.64;101520.38;30728787;28;20066;-76
2022/02/14 13:32:33;;;;;;;6.73;3.17;;;;;;;7.58;35.38;101515.28;30711240;28;20057;-76
2022/02/14 13:47:35;;;;;;;14.97;3.73;;;;;;;7.30;37.21;101506.78;30696095;28;20052;-76
2022/02/14 14:02:37;;;;;;;5.97;2.90;;;;;;;6.86;38.17;101515.25;30682658;28;20070;-77
2022/02/14 14:17:46;;;;;;;6.93;3.50;;;;;;;6.77;39.54;101509.31;30674984;28;20091;-77
2022/02/14 14:32:49;;;;;;;13.23;3.60;;;;;;;6.49;40.11;101510.34;30738940;28;20079;-78
2022/02/14 14:47:51;;;;;;;7.00;3.60;;;;;;;6.53;41.83;101525.81;30736715;28;20058;-76
2022/02/14 15:02:53;;;;;;;8.00;3.30;;;;;;;6.63;42.37;101517.16;30717910;28;20138;-77
2022/02/14 15:17:57;;;;;;;8.17;4.13;;;;;;;6.57;42.97;101510.50;30717539;28;20060;-77
2022/02/14 15:32:59;;;;;;;11.93;4.30;;;;;;;6.37;43.28;101524.00;30713311;28;20047;-77
2022/02/14 15:48:01;;;;;;;19.57;5.37;;;;;;;6.10;44.06;101524.97;30736612;28;20134;-76
2022/02/14 16:03:05;;;;;;;12.17;5.47;;;;;;;5.94;44.62;101543.88;30723896;28;20054;-78
2022/02/14 16:18:07;;;;;;;11.87;3.30;;;;;;;5.72;44.34;101537.19;30800216;28;20151;-77
2022/02/14 16:33:09;;;;;;;9.27;3.57;;;;;;;5.46;44.49;101536.94;30744771;28;20047;-78
2022/02/14 16:48:10;;;;;;;14.23;4.03;;;;;;;5.16;44.38;101536.63;30736437;28;20144;-77
2022/02/14 17:03:12;;;;;;;8.37;3.47;;;;;;;4.87;44.41;101540.47;30707606;28;20044;-77
2022/02/14 17:18:17;;;;;;;9.70;3.83;;;;;;;4.73;45.06;101545.47;30722549;28;20055;-79
2022/02/14 17:33:19;;;;;;;20.27;8.07;;;;;;;4.37;46.38;101538.31;30728348;28;20056;-76
2022/02/14 17:48:21;;;;;;;22.17;8.03;;;;;;;4.38;46.53;101540.69;30754375;28;20090;-75
2022/02/14 18:03:23;;;;;;;15.53;7.00;;;;;;;4.27;46.81;101534.19;30712758;28;20055;-77
2022/02/14 18:18:25;;;;;;;24.90;9.20;;;;;;;4.06;47.32;101541.66;30742697;28;20083;-76
2022/02/14 18:33:27;;;;;;;21.07;9.57;;;;;;;4.02;48.13;101538.06;30731338;28;20061;-77
2022/02/14 18:48:29;;;;;;;30.47;11.93;;;;;;;3.89;49.78;101555.34;30745370;28;20134;-77
2022/02/14 19:03:31;;;;;;;35.67;13.47;;;;;;;3.74;51.68;101564.88;30744360;28;20408;-77
2022/02/14 19:18:33;;;;;;;43.10;17.40;;;;;;;3.53;53.71;101564.97;30738217;28;20150;-78
2022/02/14 19:33:51;;;;;;;50.93;17.93;;;;;;;3.46;54.10;101562.06;30769878;28;20527;-76
2022/02/14 19:48:54;;;;;;;49.23;16.70;;;;;;;3.25;53.42;101564.03;30760080;28;20539;-75
2022/02/14 20:03:56;;;;;;;46.30;17.60;;;;;;;3.11;54.09;101558.19;30736076;28;20497;-75
2022/02/14 20:18:57;;;;;;;53.17;20.93;;;;;;;2.80;54.28;101559.47;30741865;28;20055;-75
2022/02/14 20:34:20;;;;;;;53.20;21.47;;;;;;;2.55;57.01;101565.81;30735727;28;20498;-76
2022/02/14 20:49:23;;;;;;;59.50;23.20;;;;;;;2.15;56.83;101566.25;30747431;28;20134;-75
2022/02/14 21:04:31;;;;;;;77.10;26.90;;;;;;;2.28;57.63;101567.91;30735020;28;20528;-75
2022/02/14 21:19:33;;;;;;;56.00;18.40;;;;;;;2.17;57.01;101574.75;30736662;28;20118;-79
2022/02/14 21:34:35;;;;;;;60.23;21.20;;;;;;;1.99;59.57;101574.09;30733083;28;20066;-77
2022/02/14 21:49:39;;;;;;;48.40;17.90;;;;;;;1.73;58.56;101583.38;30768369;28;20058;-79
2022/02/14 22:20:07;;;;;;;35.93;14.37;;;;;;;1.26;59.92;101586.84;30721186;28;20422;-78
2022/02/14 22:35:09;;;;;;;35.87;15.93;;;;;;;1.05;60.51;101569.13;30729419;28;20046;-79
2022/02/14 22:50:11;;;;;;;26.03;10.40;;;;;;;0.96;59.11;101567.22;30708699;28;20058;-77
2022/02/14 23:05:13;;;;;;;24.03;8.40;;;;;;;0.76;59.85;101569.78;30696739;28;20055;-78
2022/02/14 23:20:15;;;;;;;21.97;7.67;;;;;;;0.60;60.61;101559.59;30698640;28;20066;-78
2022/02/14 23:35:17;;;;;;;18.93;7.20;;;;;;;0.51;61.36;101547.31;30713519;28;20066;-77
2022/02/14 23:50:18;;;;;;;19.80;6.07;;;;;;;0.47;61.50;101546.41;30710719;28;20060;-77
